Flight Track Log - Related Links

Times and Time Zones

All times are in EDT time to prevent confusion due to time zone crossing. See the PDT4456 flight status page for this flight to view local times or setup timezone preferences in your user account.

Time Position Orientation Groundspeed Altitude Reporting Facility
EDT Latitude Longitude Course Direction KTS MPH feet Rate Location/Type
Sun 05:27:41 PM 43.1078 -76.1261 258° West 118 136 1,000  Level Boston Center
Sun 05:28:23 PM 43.1025 -76.1600 258° West 126 145 2,100 1,320 Climbing Boston Center
Sun 05:30:11 PM 43.0669 -76.0983 128° Southeast 143 165 4,300 1,357 Climbing Boston Center
Sun 05:31:11 PM 43.0544 -76.0378 106° East 156 180 5,900 1,300 Climbing Boston Center
Sun 05:32:11 PM 43.0456 -75.9889 104° East 162 186 6,900 1,350 Climbing Boston Center
Sun 05:33:11 PM 43.0331 -75.9142 103° East 162 186 8,600 1,450 Climbing Boston Center
Sun 05:34:11 PM 43.0289 -75.8458 95° East 167 192 9,800 1,091 Climbing Boston Center
Sun 05:35:23 PM 43.0225 -75.7772 97° East 178 205 11,000 1,182 Climbing Boston Center
Sun 05:36:23 PM 43.0128 -75.6889 99° East 183 211 12,400 1,250 Climbing Boston Center
Sun 05:37:23 PM 43.0044 -75.6117 98° East 189 217 13,500 1,000 Climbing Boston Center
Sun 05:38:23 PM 42.9983 -75.5289 96° East 200 230 14,400 850 Climbing Boston Center
Sun 05:39:23 PM 42.9858 -75.4544 103° East 215 247 15,200 900 Climbing Boston Center
Sun 05:40:23 PM 42.9717 -75.3517 101° East 225 259 16,200 900 Climbing Boston Center
Sun 05:41:23 PM 42.9594 -75.2631 101° East 225 259 17,000 400 Climbing Boston Center
Sun 05:42:23 PM 42.9408 -75.1686 105° East 232 267 17,000  Level Boston Center
Sun 05:44:23 PM 42.9103 -74.9603 101° East 272 313 17,000  Level Boston Center
Sun 05:45:23 PM 42.8958 -74.8519 100° East 283 326 17,000  Level Boston Center
Sun 05:46:23 PM 42.8794 -74.7381 101° East 289 333 17,000  Level Boston Center
Sun 05:47:23 PM 42.8650 -74.6297 100° East 294 338 17,000  Level Boston Center
Sun 05:48:23 PM 42.8483 -74.5189 102° East 294 338 17,000  Level Boston Center
Sun 05:49:23 PM 42.8314 -74.4078 102° East 294 338 17,000  Level Boston Center
Sun 05:50:23 PM 42.8167 -74.2969 100° East 293 337 17,000  Level Boston Center
Sun 05:51:35 PM 42.8017 -74.1889 101° East 293 337 17,000  Level Boston Center
Sun 05:52:35 PM 42.7828 -74.0611 101° East 293 337 17,000  Level Boston Center
Sun 05:53:35 PM 42.7697 -73.9533 99° East 293 337 17,000  Level Boston Center
Sun 05:54:35 PM 42.7522 -73.8425 102° East 293 337 17,000  Level Boston Center
Sun 05:55:35 PM 42.7475 -73.7294 93° East 293 337 17,000  Level Boston Center
Sun 05:56:35 PM 42.7592 -73.6164 82° East 302 348 17,000  Level Boston Center
Sun 05:57:35 PM 42.7664 -73.5064 85° East 295 339 17,000  Level Boston Center
Sun 05:58:35 PM 42.7736 -73.3961 85° East 295 339 17,000  Level Boston Center
Sun 05:59:35 PM 42.7642 -73.2856 97° East 289 333 17,000 50 Level Boston Center
Sun 06:00:35 PM 42.7461 -73.1781 103° East 289 333 17,100 50 Climbing Boston Center
Sun 06:01:35 PM 42.7258 -73.0647 104° East 297 342 17,100  Level Boston Center
Sun 06:02:47 PM 42.7078 -72.9572 103° East 297 342 17,100  Level Boston Center
Sun 06:03:47 PM 42.6853 -72.8242 103° East 297 342 17,100  Level Boston Center
Sun 06:04:47 PM 42.6669 -72.7169 103° East 297 342 17,100  Level Boston Center
Sun 06:05:59 PM 42.6483 -72.6039 103° East 297 342 17,100 -409 Level Boston Center
Sun 06:06:59 PM 42.6233 -72.4711 104° East 297 342 16,200 -1,100 Descending Boston Center
Sun 06:07:59 PM 42.5983 -72.3497 106° East 308 354 14,900 -1,300 Descending Boston Center
Sun 06:08:59 PM 42.5731 -72.2231 105° East 327 376 13,600 -1,350 Descending Boston Center
Sun 06:09:59 PM 42.5564 -72.1161 102° East 336 387 12,200 -1,400 Descending Boston Center
Sun 06:10:59 PM 42.5369 -71.9864 101° East 325 374 10,800 -1,200 Descending Boston Center
Sun 06:11:59 PM 42.5306 -71.9075 96° East 312 359 9,800 -850 Descending Boston Center
Sun 06:12:59 PM 42.5150 -71.7697 99° East 291 335 9,100 -350 Descending Boston Center
Sun 06:13:59 PM 42.5083 -71.6683 95° East 273 314 9,100 -148 Level Boston Center
Sun 06:15:01 PM 42.5000 -71.5667 96° East 261 300 8,800 -656 Descending KA90
Sun 06:16:07 PM 42.4833 -71.4500 101° East 282 325 7,700 -1,000 Descending KA90
Sun 06:17:01 PM 42.5000 -71.3500 77° East 282 325 6,800 -895 Descending KA90
Sun 06:18:01 PM 42.5167 -71.2500 77° East 279 321 6,000 -900 Descending KA90
Sun 06:19:01 PM 42.5167 -71.1500 90° East 273 314 5,000 -1,000 Descending KA90
Sun 06:20:01 PM 42.5333 -71.0500 77° East 271 312 4,000 -1,000 Descending KA90
Sun 06:21:01 PM 42.5167 -70.9667 105° East 268 308 3,000 -1,000 Descending KA90
Sun 06:22:01 PM 42.4667 -70.9500 166° South 192 221 2,000 -950 Descending KA90
Sun 06:23:01 PM 42.4167 -70.9833 206° Southwest 145 167 1,100 -857 Descending KA90
Sun 06:24:07 PM 42.3833 -71.0000 200° South 125 144 200 -818 Descending KA90

Login

Don't have an account? Register now (free) for customized features, flight alerts, and more!